EmailTwitter


Observations de surface / Québec / CYUL (71627)

Régions: Québec | Canada | États-Unis | Europe | France | UK | Elsewhere
Station
Affichage
Infos & localisation pour CYUL (71627) | Aide pour décoder les METARs

Observations prises le 2017-03-24 à 11H40 UTC à MONTREAL INTL A, QB (CYUL)

Etat du ciel: couvert.

Température: -2.0 Celsius

Point de rosée: -9.0 Celsius

Humidité relative: 59%

Facteur vent: -8.

Vents: Sud-sud-est à 19 km/h ou 10 noeuds.

Pression au niveau moyen de la mer: 102.49 kilopascals.

Calage altimétrique: 102.47 kilopascals ou 30.26 pouces de mercure.

Visibilité horizontale: 15.00 milles terrestres ou 24.00 kilomètres.

Hauteur du plafond: 1219 mètres ( 4000 pieds ).

Observation METAR:

CYUL 241140Z 16010KT 15SM OVC040 M02/M09 A3026 RMK SC8 SLP249=